sensor_id;sensor_type;location;lat;lon;timestamp;pressure;altitude;pressure_sealevel;temperature;humidity
45888;BME280;31595;51.418;7.572;2023-02-28T00:00:14;101672.94;;;1.66;59.13
45888;BME280;31595;51.418;7.572;2023-02-28T00:02:42;101671.41;;;1.70;59.31
45888;BME280;31595;51.418;7.572;2023-02-28T00:05:12;101674.09;;;1.77;58.85
45888;BME280;31595;51.418;7.572;2023-02-28T00:07:40;101672.41;;;1.76;58.75
45888;BME280;31595;51.418;7.572;2023-02-28T00:10:11;101668.66;;;1.70;58.53
45888;BME280;31595;51.418;7.572;2023-02-28T00:12:41;101670.00;;;1.61;59.16
45888;BME280;31595;51.418;7.572;2023-02-28T00:15:10;101673.44;;;1.56;59.09
45888;BME280;31595;51.418;7.572;2023-02-28T00:17:37;101668.16;;;1.55;59.21
45888;BME280;31595;51.418;7.572;2023-02-28T00:20:06;101672.66;;;1.49;59.20
45888;BME280;31595;51.418;7.572;2023-02-28T00:22:34;101673.16;;;1.39;59.28
45888;BME280;31595;51.418;7.572;2023-02-28T00:25:01;101677.19;;;1.37;59.65
45888;BME280;31595;51.418;7.572;2023-02-28T00:27:29;101673.25;;;1.26;59.87
45888;BME280;31595;51.418;7.572;2023-02-28T00:29:57;101668.00;;;1.25;59.87
45888;BME280;31595;51.418;7.572;2023-02-28T00:32:25;101666.34;;;1.17;60.12
45888;BME280;31595;51.418;7.572;2023-02-28T00:34:52;101665.31;;;1.11;60.07
45888;BME280;31595;51.418;7.572;2023-02-28T00:37:19;101666.66;;;1.02;60.13
45888;BME280;31595;51.418;7.572;2023-02-28T00:39:47;101670.50;;;1.01;59.99
45888;BME280;31595;51.418;7.572;2023-02-28T00:42:14;101672.63;;;0.92;60.44
45888;BME280;31595;51.418;7.572;2023-02-28T00:44:41;101666.75;;;0.89;59.83
45888;BME280;31595;51.418;7.572;2023-02-28T00:47:09;101668.06;;;0.79;60.58
45888;BME280;31595;51.418;7.572;2023-02-28T00:49:37;101663.91;;;0.70;60.66
45888;BME280;31595;51.418;7.572;2023-02-28T00:52:04;101668.59;;;0.63;60.61
45888;BME280;31595;51.418;7.572;2023-02-28T00:54:31;101675.38;;;0.54;61.15
45888;BME280;31595;51.418;7.572;2023-02-28T00:56:58;101669.91;;;0.54;61.26
45888;BME280;31595;51.418;7.572;2023-02-28T00:59:25;101678.97;;;0.48;61.07
45888;BME280;31595;51.418;7.572;2023-02-28T01:01:53;101679.84;;;0.42;60.50
45888;BME280;31595;51.418;7.572;2023-02-28T01:04:22;101673.34;;;0.36;61.15
45888;BME280;31595;51.418;7.572;2023-02-28T01:06:58;101674.84;;;0.25;61.36
45888;BME280;31595;51.418;7.572;2023-02-28T01:09:26;101677.19;;;0.28;61.01
45888;BME280;31595;51.418;7.572;2023-02-28T01:11:53;101677.59;;;0.25;61.93
45888;BME280;31595;51.418;7.572;2023-02-28T01:14:20;101678.03;;;0.22;61.45
45888;BME280;31595;51.418;7.572;2023-02-28T01:16:47;101674.47;;;0.22;62.51
45888;BME280;31595;51.418;7.572;2023-02-28T01:19:15;101678.91;;;0.16;62.32
45888;BME280;31595;51.418;7.572;2023-02-28T01:21:44;101674.50;;;0.15;62.45
45888;BME280;31595;51.418;7.572;2023-02-28T01:24:13;101675.09;;;0.10;62.22
45888;BME280;31595;51.418;7.572;2023-02-28T01:26:41;101673.84;;;0.06;62.38
45888;BME280;31595;51.418;7.572;2023-02-28T01:29:09;101671.97;;;0.07;62.83
45888;BME280;31595;51.418;7.572;2023-02-28T01:31:39;101665.25;;;0.03;62.35
45888;BME280;31595;51.418;7.572;2023-02-28T01:34:07;101673.25;;;-0.03;62.43
45888;BME280;31595;51.418;7.572;2023-02-28T01:36:34;101664.00;;;-0.08;63.05
45888;BME280;31595;51.418;7.572;2023-02-28T01:39:03;101668.63;;;-0.09;63.05
45888;BME280;31595;51.418;7.572;2023-02-28T01:41:32;101668.88;;;-0.10;63.11
45888;BME280;31595;51.418;7.572;2023-02-28T01:44:05;101666.34;;;-0.12;63.44
45888;BME280;31595;51.418;7.572;2023-02-28T01:46:34;101667.59;;;-0.14;63.30
45888;BME280;31595;51.418;7.572;2023-02-28T01:49:07;101661.28;;;-0.22;62.96
45888;BME280;31595;51.418;7.572;2023-02-28T01:51:40;101658.78;;;-0.23;63.04
45888;BME280;31595;51.418;7.572;2023-02-28T01:54:15;101660.03;;;-0.26;63.03
45888;BME280;31595;51.418;7.572;2023-02-28T01:56:47;101660.03;;;-0.26;63.25
45888;BME280;31595;51.418;7.572;2023-02-28T01:59:21;101663.41;;;-0.30;63.49
45888;BME280;31595;51.418;7.572;2023-02-28T02:01:49;101658.56;;;-0.35;62.84
45888;BME280;31595;51.418;7.572;2023-02-28T02:04:16;101657.13;;;-0.37;63.99
45888;BME280;31595;51.418;7.572;2023-02-28T02:06:47;101653.94;;;-0.41;64.05
45888;BME280;31595;51.418;7.572;2023-02-28T02:09:16;101655.84;;;-0.42;64.02
45888;BME280;31595;51.418;7.572;2023-02-28T02:11:44;101657.75;;;-0.49;64.11
45888;BME280;31595;51.418;7.572;2023-02-28T02:14:31;101656.50;;;-0.46;64.39
45888;BME280;31595;51.418;7.572;2023-02-28T02:17:10;101648.25;;;-0.53;64.66
45888;BME280;31595;51.418;7.572;2023-02-28T02:23:26;101649.09;;;-0.59;64.81
45888;BME280;31595;51.418;7.572;2023-02-28T02:26:11;101639.00;;;-0.65;64.25
45888;BME280;31595;51.418;7.572;2023-02-28T02:28:53;101646.63;;;-0.67;64.84
45888;BME280;31595;51.418;7.572;2023-02-28T02:34:27;101650.19;;;-0.73;64.01
45888;BME280;31595;51.418;7.572;2023-02-28T02:37:05;101638.63;;;-0.75;63.92
45888;BME280;31595;51.418;7.572;2023-02-28T02:39:42;101654.16;;;-0.76;64.12
45888;BME280;31595;51.418;7.572;2023-02-28T02:42:14;101645.75;;;-0.74;64.32
45888;BME280;31595;51.418;7.572;2023-02-28T02:44:49;101650.59;;;-0.76;64.95
45888;BME280;31595;51.418;7.572;2023-02-28T02:47:22;101648.06;;;-0.78;64.86
45888;BME280;31595;51.418;7.572;2023-02-28T02:49:55;101650.59;;;-0.76;64.86
45888;BME280;31595;51.418;7.572;2023-02-28T02:52:28;101648.06;;;-0.78;64.76
45888;BME280;31595;51.418;7.572;2023-02-28T02:54:58;101650.16;;;-0.80;64.05
45888;BME280;31595;51.418;7.572;2023-02-28T02:57:30;101646.16;;;-0.84;64.64
45888;BME280;31595;51.418;7.572;2023-02-28T03:00:05;101659.63;;;-0.89;64.55
45888;BME280;31595;51.418;7.572;2023-02-28T03:02:35;101656.28;;;-0.91;64.81
45888;BME280;31595;51.418;7.572;2023-02-28T03:05:13;101654.59;;;-0.92;64.25
45888;BME280;31595;51.418;7.572;2023-02-28T03:07:44;101653.34;;;-0.96;64.11
45888;BME280;31595;51.418;7.572;2023-02-28T03:10:29;101659.63;;;-0.96;64.44
45888;BME280;31595;51.418;7.572;2023-02-28T03:16:07;101652.25;;;-1.02;64.88
45888;BME280;31595;51.418;7.572;2023-02-28T03:18:47;101651.63;;;-1.04;65.08
45888;BME280;31595;51.418;7.572;2023-02-28T03:21:27;101651.81;;;-1.06;65.03
45888;BME280;31595;51.418;7.572;2023-02-28T03:24:03;101653.53;;;-1.05;64.69
45888;BME280;31595;51.418;7.572;2023-02-28T03:26:34;101652.66;;;-1.05;64.14
45888;BME280;31595;51.418;7.572;2023-02-28T03:29:05;101649.94;;;-1.05;64.47
45888;BME280;31595;51.418;7.572;2023-02-28T03:31:40;101640.06;;;-1.06;63.96
45888;BME280;31595;51.418;7.572;2023-02-28T03:34:11;101644.88;;;-1.08;64.90
45888;BME280;31595;51.418;7.572;2023-02-28T03:36:45;101649.94;;;-1.05;63.89
45888;BME280;31595;51.418;7.572;2023-02-28T03:39:17;101654.13;;;-1.09;63.89
45888;BME280;31595;51.418;7.572;2023-02-28T03:41:52;101649.28;;;-1.07;64.71
45888;BME280;31595;51.418;7.572;2023-02-28T03:44:24;101645.31;;;-1.11;64.73
45888;BME280;31595;51.418;7.572;2023-02-28T03:46:56;101648.88;;;-1.11;63.95
45888;BME280;31595;51.418;7.572;2023-02-28T03:49:28;101650.78;;;-1.11;63.59
45888;BME280;31595;51.418;7.572;2023-02-28T03:52:03;101654.56;;;-1.12;64.10
45888;BME280;31595;51.418;7.572;2023-02-28T03:54:36;101652.88;;;-1.13;63.51
45888;BME280;31595;51.418;7.572;2023-02-28T03:57:15;101652.66;;;-1.18;63.51
45888;BME280;31595;51.418;7.572;2023-02-28T03:59:49;101649.09;;;-1.19;63.62
45888;BME280;31595;51.418;7.572;2023-02-28T04:02:21;101656.44;;;-1.19;64.29
45888;BME280;31595;51.418;7.572;2023-02-28T04:04:48;101653.72;;;-1.19;64.51
45888;BME280;31595;51.418;7.572;2023-02-28T04:07:18;101658.94;;;-1.25;64.55
45888;BME280;31595;51.418;7.572;2023-02-28T04:09:45;101656.22;;;-1.25;63.60
45888;BME280;31595;51.418;7.572;2023-02-28T04:12:12;101650.31;;;-1.28;64.49
45888;BME280;31595;51.418;7.572;2023-02-28T04:14:39;101655.38;;;-1.32;64.35
45888;BME280;31595;51.418;7.572;2023-02-28T04:17:07;101657.47;;;-1.34;64.75
45888;BME280;31595;51.418;7.572;2023-02-28T04:19:37;101658.50;;;-1.35;64.23
45888;BME280;31595;51.418;7.572;2023-02-28T04:22:04;101662.50;;;-1.37;64.42
45888;BME280;31595;51.418;7.572;2023-02-28T04:24:33;101665.22;;;-1.37;64.62
45888;BME280;31595;51.418;7.572;2023-02-28T04:27:00;101662.91;;;-1.40;64.00
45888;BME280;31595;51.418;7.572;2023-02-28T04:29:32;101663.94;;;-1.41;64.47
45888;BME280;31595;51.418;7.572;2023-02-28T04:32:01;101655.31;;;-1.45;64.18
45888;BME280;31595;51.418;7.572;2023-02-28T04:34:30;101658.28;;;-1.47;64.01
45888;BME280;31595;51.418;7.572;2023-02-28T04:36:58;101655.72;;;-1.48;64.40
45888;BME280;31595;51.418;7.572;2023-02-28T04:39:26;101660.56;;;-1.50;63.79
45888;BME280;31595;51.418;7.572;2023-02-28T04:41:55;101665.19;;;-1.51;64.20
45888;BME280;31595;51.418;7.572;2023-02-28T04:44:22;101665.59;;;-1.54;64.11
45888;BME280;31595;51.418;7.572;2023-02-28T04:46:50;101664.94;;;-1.56;64.61
45888;BME280;31595;51.418;7.572;2023-02-28T04:49:17;101663.91;;;-1.55;64.49
45888;BME280;31595;51.418;7.572;2023-02-28T04:51:44;101658.66;;;-1.56;64.87
45888;BME280;31595;51.418;7.572;2023-02-28T04:54:11;101667.47;;;-1.54;65.16
45888;BME280;31595;51.418;7.572;2023-02-28T04:56:39;101671.28;;;-1.55;64.79
45888;BME280;31595;51.418;7.572;2023-02-28T04:59:07;101664.53;;;-1.59;64.14
45888;BME280;31595;51.418;7.572;2023-02-28T05:01:34;101665.56;;;-1.60;64.21
45888;BME280;31595;51.418;7.572;2023-02-28T05:04:03;101665.38;;;-1.52;65.30
45888;BME280;31595;51.418;7.572;2023-02-28T05:06:32;101669.84;;;-1.45;65.29
45888;BME280;31595;51.418;7.572;2023-02-28T05:09:00;101671.91;;;-1.53;65.13
45888;BME280;31595;51.418;7.572;2023-02-28T05:11:30;101677.16;;;-1.52;64.54
45888;BME280;31595;51.418;7.572;2023-02-28T05:14:00;101674.00;;;-1.55;63.73
45888;BME280;31595;51.418;7.572;2023-02-28T05:16:36;101675.47;;;-1.59;63.67
45888;BME280;31595;51.418;7.572;2023-02-28T05:19:04;101681.75;;;-1.66;64.18
45888;BME280;31595;51.418;7.572;2023-02-28T05:21:33;101684.47;;;-1.66;63.42
45888;BME280;31595;51.418;7.572;2023-02-28T05:24:02;101677.91;;;-1.71;63.43
45888;BME280;31595;51.418;7.572;2023-02-28T05:26:30;101681.69;;;-1.72;63.85
45888;BME280;31595;51.418;7.572;2023-02-28T05:28:58;101682.28;;;-1.77;63.05
45888;BME280;31595;51.418;7.572;2023-02-28T05:31:26;101684.56;;;-1.87;63.36
45888;BME280;31595;51.418;7.572;2023-02-28T05:33:55;101691.47;;;-1.91;62.76
45888;BME280;31595;51.418;7.572;2023-02-28T05:36:25;101684.31;;;-1.92;62.79
45888;BME280;31595;51.418;7.572;2023-02-28T05:38:54;101687.44;;;-1.95;62.86
45888;BME280;31595;51.418;7.572;2023-02-28T05:41:24;101680.66;;;-2.06;63.31
45888;BME280;31595;51.418;7.572;2023-02-28T05:43:56;101687.53;;;-2.17;63.18
45888;BME280;31595;51.418;7.572;2023-02-28T05:49:42;101697.38;;;-2.22;63.39
45888;BME280;31595;51.418;7.572;2023-02-28T05:52:10;101688.56;;;-2.25;63.44
45888;BME280;31595;51.418;7.572;2023-02-28T05:55:09;101688.56;;;-2.25;63.41
45888;BME280;31595;51.418;7.572;2023-02-28T05:58:05;101693.16;;;-2.25;63.45
45888;BME280;31595;51.418;7.572;2023-02-28T06:00:41;101683.03;;;-2.31;63.08
45888;BME280;31595;51.418;7.572;2023-02-28T06:03:15;101688.47;;;-2.31;63.61
45888;BME280;31595;51.418;7.572;2023-02-28T06:05:53;101697.72;;;-2.32;63.56
45888;BME280;31595;51.418;7.572;2023-02-28T06:08:21;101695.38;;;-2.35;63.27
45888;BME280;31595;51.418;7.572;2023-02-28T06:10:49;101693.94;;;-2.31;63.34
45888;BME280;31595;51.418;7.572;2023-02-28T06:13:22;101704.00;;;-2.32;63.84
45888;BME280;31595;51.418;7.572;2023-02-28T06:16:04;101702.72;;;-2.36;63.22
45888;BME280;31595;51.418;7.572;2023-02-28T06:18:49;101710.06;;;-2.36;63.32
45888;BME280;31595;51.418;7.572;2023-02-28T06:21:24;101713.41;;;-2.41;63.42
45888;BME280;31595;51.418;7.572;2023-02-28T06:27:16;101719.47;;;-2.46;63.63
45888;BME280;31595;51.418;7.572;2023-02-28T06:29:53;101721.72;;;-2.49;63.96
45888;BME280;31595;51.418;7.572;2023-02-28T06:32:25;101727.88;;;-2.40;64.05
45888;BME280;31595;51.418;7.572;2023-02-28T06:35:46;101729.56;;;-2.39;64.00
45888;BME280;31595;51.418;7.572;2023-02-28T06:38:15;101721.53;;;-2.19;63.70
45888;BME280;31595;51.418;7.572;2023-02-28T06:40:55;101722.91;;;-2.02;63.65
45888;BME280;31595;51.418;7.572;2023-02-28T06:47:06;101727.03;;;-1.85;63.13
45888;BME280;31595;51.418;7.572;2023-02-28T06:52:43;101728.69;;;-1.84;62.46
45888;BME280;31595;51.418;7.572;2023-02-28T06:58:06;101720.69;;;-0.55;62.46
45888;BME280;31595;51.418;7.572;2023-02-28T07:00:50;101719.31;;;1.17;59.24
45888;BME280;31595;51.418;7.572;2023-02-28T07:03:19;101715.34;;;2.51;56.65
45888;BME280;31595;51.418;7.572;2023-02-28T07:05:56;101713.28;;;3.79;53.36
45888;BME280;31595;51.418;7.572;2023-02-28T07:08:26;101717.56;;;4.45;50.28
45888;BME280;31595;51.418;7.572;2023-02-28T07:11:12;101721.91;;;3.94;49.63
45888;BME280;31595;51.418;7.572;2023-02-28T07:13:50;101716.25;;;3.77;48.89
45888;BME280;31595;51.418;7.572;2023-02-28T07:16:23;101728.31;;;3.53;48.54
45888;BME280;31595;51.418;7.572;2023-02-28T07:21:55;101725.25;;;5.58;45.64
45888;BME280;31595;51.418;7.572;2023-02-28T07:24:45;101720.38;;;7.26;42.27
45888;BME280;31595;51.418;7.572;2023-02-28T07:27:17;101718.69;;;7.20;42.06
45888;BME280;31595;51.418;7.572;2023-02-28T07:36:26;101733.22;;;6.22;43.62
45888;BME280;31595;51.418;7.572;2023-02-28T07:39:09;101733.63;;;6.31;43.75
45888;BME280;31595;51.418;7.572;2023-02-28T07:51:50;101720.75;;;7.08;41.83
45888;BME280;31595;51.418;7.572;2023-02-28T07:54:32;101719.72;;;7.14;41.98
45888;BME280;31595;51.418;7.572;2023-02-28T07:57:48;101723.16;;;6.99;41.99
45888;BME280;31595;51.418;7.572;2023-02-28T08:00:30;101734.94;;;6.89;41.69
45888;BME280;31595;51.418;7.572;2023-02-28T08:03:43;101731.59;;;6.87;41.89
45888;BME280;31595;51.418;7.572;2023-02-28T08:06:27;101724.94;;;6.88;42.64
45888;BME280;31595;51.418;7.572;2023-02-28T08:08:59;101732.22;;;6.95;42.99
45888;BME280;31595;51.418;7.572;2023-02-28T08:11:43;101737.63;;;6.84;43.45
45888;BME280;31595;51.418;7.572;2023-02-28T08:14:25;101731.72;;;6.76;43.22
45888;BME280;31595;51.418;7.572;2023-02-28T08:17:06;101732.81;;;6.53;44.10
45888;BME280;31595;51.418;7.572;2023-02-28T08:19:37;101732.16;;;6.45;44.49
45888;BME280;31595;51.418;7.572;2023-02-28T08:22:05;101732.41;;;6.44;44.63
45888;BME280;31595;51.418;7.572;2023-02-28T08:25:04;101732.31;;;6.56;44.73
45888;BME280;31595;51.418;7.572;2023-02-28T08:27:40;101733.03;;;7.17;43.83
45888;BME280;31595;51.418;7.572;2023-02-28T08:30:46;101729.75;;;8.17;41.65
45888;BME280;31595;51.418;7.572;2023-02-28T08:33:17;101734.53;;;8.27;41.75
45888;BME280;31595;51.418;7.572;2023-02-28T08:35:45;101736.03;;;8.02;42.15
45888;BME280;31595;51.418;7.572;2023-02-28T08:45:05;101741.75;;;7.04;43.02
45888;BME280;31595;51.418;7.572;2023-02-28T08:47:46;101738.69;;;7.27;42.76
45888;BME280;31595;51.418;7.572;2023-02-28T08:50:27;101735.38;;;7.30;42.48
45888;BME280;31595;51.418;7.572;2023-02-28T08:57:31;101737.72;;;6.89;43.33
45888;BME280;31595;51.418;7.572;2023-02-28T09:07:20;101730.34;;;8.24;41.79
45888;BME280;31595;51.418;7.572;2023-02-28T09:10:12;101730.84;;;9.42;40.77
45888;BME280;31595;51.418;7.572;2023-02-28T09:12:46;101734.78;;;9.67;39.60
45888;BME280;31595;51.418;7.572;2023-02-28T09:15:26;101735.84;;;9.50;38.34
45888;BME280;31595;51.418;7.572;2023-02-28T09:21:15;101732.66;;;8.96;39.75
45888;BME280;31595;51.418;7.572;2023-02-28T09:23:49;101740.91;;;8.75;40.17
45888;BME280;31595;51.418;7.572;2023-02-28T09:26:23;101733.03;;;8.57;40.59
45888;BME280;31595;51.418;7.572;2023-02-28T09:28:51;101729.53;;;8.29;40.27
45888;BME280;31595;51.418;7.572;2023-02-28T09:34:53;101728.66;;;8.66;40.29
45888;BME280;31595;51.418;7.572;2023-02-28T09:37:36;101729.63;;;8.97;39.02
45888;BME280;31595;51.418;7.572;2023-02-28T09:40:30;101723.91;;;9.34;37.52
45888;BME280;31595;51.418;7.572;2023-02-28T09:43:31;101731.16;;;9.66;36.98
45888;BME280;31595;51.418;7.572;2023-02-28T09:49:42;101731.69;;;10.30;35.99
45888;BME280;31595;51.418;7.572;2023-02-28T09:58:59;101714.72;;;15.62;26.41
45888;BME280;31595;51.418;7.572;2023-02-28T10:01:34;101719.91;;;14.68;26.93
45888;BME280;31595;51.418;7.572;2023-02-28T10:04:33;101724.13;;;13.91;27.92
45888;BME280;31595;51.418;7.572;2023-02-28T10:07:25;101711.25;;;16.33;26.35
45888;BME280;31595;51.418;7.572;2023-02-28T10:10:19;101709.00;;;20.17;21.68
45888;BME280;31595;51.418;7.572;2023-02-28T10:13:26;101682.88;;;24.81;17.39
45888;BME280;31595;51.418;7.572;2023-02-28T10:16:20;101688.13;;;27.48;16.34
45888;BME280;31595;51.418;7.572;2023-02-28T10:22:38;101685.81;;;22.35;18.50
45888;BME280;31595;51.418;7.572;2023-02-28T10:25:21;101684.53;;;22.33;17.79
45888;BME280;31595;51.418;7.572;2023-02-28T10:28:17;101677.22;;;25.72;16.03
45888;BME280;31595;51.418;7.572;2023-02-28T10:31:04;101680.34;;;23.84;16.08
45888;BME280;31595;51.418;7.572;2023-02-28T10:40:34;101658.09;;;31.36;12.24
45888;BME280;31595;51.418;7.572;2023-02-28T10:43:40;101653.63;;;33.94;9.56
45888;BME280;31595;51.418;7.572;2023-02-28T10:54:42;101638.50;;;35.98;8.67
45888;BME280;31595;51.418;7.572;2023-02-28T10:57:16;101647.88;;;34.76;8.97
45888;BME280;31595;51.418;7.572;2023-02-28T11:00:14;101641.91;;;32.82;9.63
45888;BME280;31595;51.418;7.572;2023-02-28T11:03:23;101636.38;;;35.61;8.32
45888;BME280;31595;51.418;7.572;2023-02-28T11:09:27;101638.88;;;35.33;9.13
45888;BME280;31595;51.418;7.572;2023-02-28T11:12:28;101630.22;;;36.96;8.23
45888;BME280;31595;51.418;7.572;2023-02-28T11:29:48;101629.28;;;37.65;7.81
45888;BME280;31595;51.418;7.572;2023-02-28T11:32:18;101615.91;;;38.86;7.05
45888;BME280;31595;51.418;7.572;2023-02-28T11:35:01;101615.09;;;39.13;6.86
45888;BME280;31595;51.418;7.572;2023-02-28T11:46:54;101615.53;;;41.11;5.87
45888;BME280;31595;51.418;7.572;2023-02-28T11:49:49;101604.53;;;40.67;6.13
45888;BME280;31595;51.418;7.572;2023-02-28T11:56:47;101615.47;;;39.67;6.47
45888;BME280;31595;51.418;7.572;2023-02-28T12:02:29;101601.84;;;40.40;5.80
45888;BME280;31595;51.418;7.572;2023-02-28T12:05:24;101601.31;;;40.17;6.53
45888;BME280;31595;51.418;7.572;2023-02-28T12:08:46;101597.84;;;41.30;6.38
45888;BME280;31595;51.418;7.572;2023-02-28T12:11:19;101592.16;;;41.11;5.92
45888;BME280;31595;51.418;7.572;2023-02-28T12:21:11;101592.81;;;39.62;6.42
45888;BME280;31595;51.418;7.572;2023-02-28T12:24:16;101586.19;;;40.52;6.49
45888;BME280;31595;51.418;7.572;2023-02-28T12:27:07;101591.25;;;40.66;6.65
45888;BME280;31595;51.418;7.572;2023-02-28T12:30:03;101584.53;;;41.29;6.37
45888;BME280;31595;51.418;7.572;2023-02-28T12:33:01;101567.38;;;41.22;6.47
45888;BME280;31595;51.418;7.572;2023-02-28T12:35:36;101572.50;;;41.56;5.50
45888;BME280;31595;51.418;7.572;2023-02-28T12:38:14;101570.13;;;40.23;6.34
45888;BME280;31595;51.418;7.572;2023-02-28T12:40:47;101561.88;;;34.15;8.16
45888;BME280;31595;51.418;7.572;2023-02-28T12:43:22;101562.16;;;36.27;8.01
45888;BME280;31595;51.418;7.572;2023-02-28T12:46:10;101551.06;;;37.58;7.27
45888;BME280;31595;51.418;7.572;2023-02-28T12:51:52;101542.44;;;38.54;7.22
45888;BME280;31595;51.418;7.572;2023-02-28T12:54:24;101547.88;;;39.16;7.02
45888;BME280;31595;51.418;7.572;2023-02-28T13:00:50;101546.97;;;38.73;6.96
45888;BME280;31595;51.418;7.572;2023-02-28T13:03:56;101544.16;;;38.14;7.45
45888;BME280;31595;51.418;7.572;2023-02-28T13:06:51;101526.13;;;37.88;7.53
45888;BME280;31595;51.418;7.572;2023-02-28T13:09:27;101530.47;;;38.70;7.36
45888;BME280;31595;51.418;7.572;2023-02-28T13:12:18;101521.41;;;38.96;6.64
45888;BME280;31595;51.418;7.572;2023-02-28T13:40:31;101507.66;;;35.96;8.52
45888;BME280;31595;51.418;7.572;2023-02-28T13:47:28;101505.56;;;32.10;9.99
45888;BME280;31595;51.418;7.572;2023-02-28T13:50:14;101508.19;;;30.54;11.12
45888;BME280;31595;51.418;7.572;2023-02-28T13:52:52;101510.41;;;29.94;11.39
45888;BME280;31595;51.418;7.572;2023-02-28T13:55:28;101505.97;;;29.16;12.05
45888;BME280;31595;51.418;7.572;2023-02-28T14:05:17;101502.59;;;24.88;13.81
45888;BME280;31595;51.418;7.572;2023-02-28T14:07:49;101506.78;;;24.37;14.70
45888;BME280;31595;51.418;7.572;2023-02-28T14:11:04;101504.41;;;23.89;14.84
45888;BME280;31595;51.418;7.572;2023-02-28T14:16:46;101499.41;;;23.17;15.32
45888;BME280;31595;51.418;7.572;2023-02-28T14:19:21;101496.81;;;23.08;15.30
45888;BME280;31595;51.418;7.572;2023-02-28T14:22:45;101497.84;;;22.26;16.35
45888;BME280;31595;51.418;7.572;2023-02-28T14:25:41;101500.88;;;22.01;16.97
45888;BME280;31595;51.418;7.572;2023-02-28T14:28:18;101508.28;;;21.74;16.51
45888;BME280;31595;51.418;7.572;2023-02-28T14:37:33;101511.22;;;19.75;18.02
45888;BME280;31595;51.418;7.572;2023-02-28T14:40:12;101509.75;;;19.44;19.15
45888;BME280;31595;51.418;7.572;2023-02-28T14:43:17;101519.94;;;19.37;18.50
45888;BME280;31595;51.418;7.572;2023-02-28T14:45:52;101510.22;;;19.13;19.70
45888;BME280;31595;51.418;7.572;2023-02-28T14:48:34;101499.69;;;19.01;20.13
45888;BME280;31595;51.418;7.572;2023-02-28T14:51:04;101506.69;;;18.83;20.61
45888;BME280;31595;51.418;7.572;2023-02-28T14:53:36;101515.19;;;18.74;19.90
45888;BME280;31595;51.418;7.572;2023-02-28T14:56:19;101510.59;;;18.70;20.31
45888;BME280;31595;51.418;7.572;2023-02-28T14:58:53;101505.34;;;18.59;19.99
45888;BME280;31595;51.418;7.572;2023-02-28T15:01:40;101508.97;;;18.39;20.49
45888;BME280;31595;51.418;7.572;2023-02-28T15:04:12;101513.56;;;17.93;21.12
45888;BME280;31595;51.418;7.572;2023-02-28T15:07:09;101518.03;;;17.38;21.35
45888;BME280;31595;51.418;7.572;2023-02-28T15:10:16;101513.50;;;16.81;22.67
45888;BME280;31595;51.418;7.572;2023-02-28T15:16:13;101503.84;;;16.38;22.57
45888;BME280;31595;51.418;7.572;2023-02-28T15:18:59;101506.75;;;16.07;22.88
45888;BME280;31595;51.418;7.572;2023-02-28T15:21:31;101508.22;;;15.65;23.54
45888;BME280;31595;51.418;7.572;2023-02-28T15:24:43;101499.94;;;15.28;23.62
45888;BME280;31595;51.418;7.572;2023-02-28T15:27:20;101507.47;;;14.96;24.03
45888;BME280;31595;51.418;7.572;2023-02-28T15:29:51;101500.31;;;14.68;24.67
45888;BME280;31595;51.418;7.572;2023-02-28T15:32:33;101505.88;;;14.45;25.07
45888;BME280;31595;51.418;7.572;2023-02-28T15:35:26;101509.34;;;14.28;25.28
45888;BME280;31595;51.418;7.572;2023-02-28T15:37:56;101507.91;;;14.17;25.76
45888;BME280;31595;51.418;7.572;2023-02-28T15:40:28;101513.31;;;13.99;25.59
45888;BME280;31595;51.418;7.572;2023-02-28T15:43:07;101506.66;;;13.81;25.66
45888;BME280;31595;51.418;7.572;2023-02-28T15:45:41;101514.34;;;13.62;26.21
45888;BME280;31595;51.418;7.572;2023-02-28T15:48:31;101501.88;;;13.40;25.84
45888;BME280;31595;51.418;7.572;2023-02-28T15:51:08;101505.31;;;13.18;26.23
45888;BME280;31595;51.418;7.572;2023-02-28T15:53:39;101508.25;;;12.94;27.02
45888;BME280;31595;51.418;7.572;2023-02-28T15:56:23;101516.38;;;12.77;27.60
45888;BME280;31595;51.418;7.572;2023-02-28T15:59:05;101518.78;;;12.65;27.69
45888;BME280;31595;51.418;7.572;2023-02-28T16:01:36;101516.97;;;12.55;27.94
45888;BME280;31595;51.418;7.572;2023-02-28T16:04:11;101516.91;;;12.41;28.05
45888;BME280;31595;51.418;7.572;2023-02-28T16:06:41;101515.50;;;12.19;28.33
45888;BME280;31595;51.418;7.572;2023-02-28T16:09:18;101521.13;;;11.95;28.85
45888;BME280;31595;51.418;7.572;2023-02-28T16:12:08;101527.91;;;11.84;29.36
45888;BME280;31595;51.418;7.572;2023-02-28T16:14:39;101527.91;;;11.60;29.77
45888;BME280;31595;51.418;7.572;2023-02-28T16:17:14;101532.94;;;11.34;30.02
45888;BME280;31595;51.418;7.572;2023-02-28T16:19:47;101525.66;;;11.04;30.84
45888;BME280;31595;51.418;7.572;2023-02-28T16:22:17;101537.59;;;10.75;30.57
45888;BME280;31595;51.418;7.572;2023-02-28T16:24:47;101531.63;;;10.52;31.37
45888;BME280;31595;51.418;7.572;2023-02-28T16:30:16;101537.41;;;10.01;32.84
45888;BME280;31595;51.418;7.572;2023-02-28T16:33:00;101542.22;;;9.80;32.92
45888;BME280;31595;51.418;7.572;2023-02-28T16:35:49;101540.91;;;9.52;32.97
45888;BME280;31595;51.418;7.572;2023-02-28T16:38:41;101545.38;;;9.22;32.80
45888;BME280;31595;51.418;7.572;2023-02-28T16:41:30;101543.72;;;8.96;33.58
45888;BME280;31595;51.418;7.572;2023-02-28T16:47:33;101558.91;;;8.52;35.11
45888;BME280;31595;51.418;7.572;2023-02-28T16:50:17;101553.53;;;8.20;35.68
45888;BME280;31595;51.418;7.572;2023-02-28T16:55:30;101552.28;;;7.90;35.87
45888;BME280;31595;51.418;7.572;2023-02-28T16:58:04;101561.66;;;7.79;36.64
45888;BME280;31595;51.418;7.572;2023-02-28T17:00:42;101561.56;;;7.63;37.04
45888;BME280;31595;51.418;7.572;2023-02-28T17:03:23;101567.53;;;7.40;36.91
45888;BME280;31595;51.418;7.572;2023-02-28T17:05:51;101574.88;;;7.24;37.23
45888;BME280;31595;51.418;7.572;2023-02-28T17:08:20;101570.34;;;7.13;37.84
45888;BME280;31595;51.418;7.572;2023-02-28T17:11:04;101565.81;;;7.01;37.85
45888;BME280;31595;51.418;7.572;2023-02-28T17:13:32;101567.06;;;6.88;38.19